createdAt,value
2019-05-21T00:01:44.749Z,10.30
2019-05-21T00:04:27.427Z,10.30
2019-05-21T00:06:49.209Z,10.30
2019-05-21T00:09:19.934Z,10.30
2019-05-21T00:11:50.470Z,10.40
2019-05-21T00:14:21.253Z,10.40
2019-05-21T00:16:53.475Z,10.30
2019-05-21T00:19:25.370Z,10.30
2019-05-21T00:21:56.358Z,10.30
2019-05-21T00:24:27.386Z,10.30
2019-05-21T00:26:58.435Z,10.30
2019-05-21T00:30:06.981Z,10.30
2019-05-21T00:33:14.125Z,10.30
2019-05-21T00:36:21.732Z,10.40
2019-05-21T00:39:28.961Z,10.40
2019-05-21T00:42:05.886Z,10.40
2019-05-21T00:44:41.688Z,10.40
2019-05-21T00:47:12.849Z,10.40
2019-05-21T00:49:43.701Z,10.40
2019-05-21T00:52:14.676Z,10.40
2019-05-21T00:54:45.367Z,10.40
2019-05-21T00:57:16.074Z,10.40
2019-05-21T00:59:47.534Z,10.40
2019-05-21T01:02:18.305Z,10.40
2019-05-21T01:05:00.174Z,10.40
2019-05-21T01:07:21.209Z,10.40
2019-05-21T01:09:51.907Z,10.40
2019-05-21T01:12:22.761Z,10.40
2019-05-21T01:14:53.828Z,10.40
2019-05-21T01:17:24.456Z,10.40
2019-05-21T01:19:55.384Z,10.40
2019-05-21T01:22:26.119Z,10.40
2019-05-21T01:24:56.734Z,10.40
2019-05-21T01:27:27.512Z,10.40
2019-05-21T01:29:58.155Z,10.40
2019-05-21T01:32:28.720Z,10.40
2019-05-21T01:34:59.388Z,10.40
2019-05-21T01:37:30.005Z,10.40
2019-05-21T01:40:00.761Z,10.40
2019-05-21T01:42:31.463Z,10.30
2019-05-21T01:45:02.601Z,10.30
2019-05-21T01:47:33.288Z,10.40
2019-05-21T01:50:04.957Z,10.40
2019-05-21T01:52:35.703Z,10.40
2019-05-21T01:55:06.214Z,10.40
2019-05-21T01:57:37.479Z,10.30
2019-05-21T02:00:08.362Z,10.30
2019-05-21T02:02:39.090Z,10.30
2019-05-21T02:05:09.796Z,10.30
2019-05-21T02:07:40.532Z,10.30
2019-05-21T02:10:11.375Z,10.30
2019-05-21T02:12:42.678Z,10.30
2019-05-21T02:15:13.528Z,10.30
2019-05-21T02:17:44.140Z,10.30
2019-05-21T02:20:15.277Z,10.30
2019-05-21T02:22:45.936Z,10.30
2019-05-21T02:25:17.089Z,10.30
2019-05-21T02:27:47.736Z,10.30
2019-05-21T02:30:18.271Z,10.30
2019-05-21T02:32:48.787Z,10.30
2019-05-21T02:35:19.459Z,10.30
2019-05-21T02:37:50.210Z,10.40
2019-05-21T02:40:21.695Z,10.40
2019-05-21T02:42:52.363Z,10.40
2019-05-21T02:45:23.027Z,10.40
2019-05-21T02:47:54.072Z,10.40
2019-05-21T02:50:24.817Z,10.30
2019-05-21T02:52:55.622Z,10.30
2019-05-21T02:55:26.341Z,10.30
2019-05-21T02:57:56.965Z,10.30
2019-05-21T03:00:38.901Z,10.30
2019-05-21T03:03:11.707Z,10.30
2019-05-21T03:05:42.477Z,10.30
2019-05-21T03:08:13.125Z,10.30
2019-05-21T03:10:43.800Z,10.30
2019-05-21T03:13:14.581Z,10.30
2019-05-21T03:15:45.246Z,10.30
2019-05-21T03:18:16.222Z,10.30
2019-05-21T03:20:46.861Z,10.30
2019-05-21T03:23:17.565Z,10.30
2019-05-21T03:25:48.331Z,10.30
2019-05-21T03:28:18.942Z,10.30
2019-05-21T03:30:50.692Z,10.30
2019-05-21T03:33:21.357Z,10.30
2019-05-21T03:35:52.006Z,10.30
2019-05-21T03:38:22.848Z,10.30
2019-05-21T03:40:53.625Z,10.30
2019-05-21T03:43:25.166Z,10.30
2019-05-21T03:45:55.834Z,10.30
2019-05-21T03:48:26.394Z,10.30
2019-05-21T03:50:57.107Z,10.30
2019-05-21T03:53:27.893Z,10.30
2019-05-21T03:55:58.814Z,10.30
2019-05-21T03:58:29.382Z,10.30
2019-05-21T04:01:00.000Z,10.30
2019-05-21T04:03:30.636Z,10.20
2019-05-21T04:06:01.433Z,10.20
2019-05-21T04:08:32.033Z,10.20
2019-05-21T04:11:02.702Z,10.20
2019-05-21T04:13:34.534Z,10.20
2019-05-21T04:16:12.694Z,10.20
2019-05-21T04:18:50.817Z,10.20
2019-05-21T04:21:21.534Z,10.20
2019-05-21T04:23:52.471Z,10.30
2019-05-21T04:26:23.406Z,10.30
2019-05-21T04:28:54.137Z,10.30
2019-05-21T04:31:25.044Z,10.30
2019-05-21T04:33:55.672Z,10.30
2019-05-21T04:36:26.449Z,10.30
2019-05-21T04:38:57.337Z,10.20
2019-05-21T04:41:28.230Z,10.20
2019-05-21T04:43:58.965Z,10.20
2019-05-21T04:46:31.663Z,10.20
2019-05-21T04:49:02.602Z,10.20
2019-05-21T04:51:34.041Z,10.30
2019-05-21T04:54:06.175Z,10.20
2019-05-21T04:56:37.094Z,10.20
2019-05-21T04:59:20.322Z,10.20
2019-05-21T05:01:51.221Z,10.30
2019-05-21T05:04:22.351Z,10.30
2019-05-21T05:06:53.269Z,10.30
2019-05-21T05:09:24.015Z,10.30
2019-05-21T05:11:54.583Z,10.40
2019-05-21T05:14:25.296Z,10.30
2019-05-21T05:16:56.146Z,10.40
2019-05-21T05:19:26.673Z,10.40
2019-05-21T05:21:57.320Z,10.30
2019-05-21T05:24:28.104Z,10.30
2019-05-21T05:26:58.848Z,10.30
2019-05-21T05:29:29.585Z,10.40
2019-05-21T05:32:00.200Z,10.40
2019-05-21T05:34:30.838Z,10.40
2019-05-21T05:37:01.678Z,10.40
2019-05-21T05:39:32.837Z,10.40
2019-05-21T05:42:03.989Z,10.40
2019-05-21T05:44:35.037Z,10.40
2019-05-21T05:47:05.883Z,10.50
2019-05-21T05:49:39.100Z,10.40
2019-05-21T05:52:09.956Z,10.50
2019-05-21T05:54:41.041Z,10.50
2019-05-21T05:57:11.939Z,10.50
2019-05-21T05:59:42.803Z,10.50
2019-05-21T06:02:13.859Z,10.50
2019-05-21T06:04:44.785Z,10.50
2019-05-21T06:07:15.566Z,10.50
2019-05-21T06:09:46.732Z,10.60
2019-05-21T06:12:17.478Z,10.60
2019-05-21T06:14:48.139Z,10.70
2019-05-21T06:17:18.746Z,10.70
2019-05-21T06:19:49.438Z,10.80
2019-05-21T06:22:20.212Z,10.80
2019-05-21T06:24:51.182Z,10.80
2019-05-21T06:27:21.927Z,10.80
2019-05-21T06:29:53.590Z,10.80
2019-05-21T06:32:24.549Z,10.90
2019-05-21T06:34:55.204Z,10.80
2019-05-21T06:37:26.082Z,10.80
2019-05-21T06:39:56.851Z,10.80
2019-05-21T06:42:27.545Z,10.80
2019-05-21T06:44:58.682Z,10.70
2019-05-21T06:47:29.574Z,10.80
2019-05-21T06:50:00.177Z,10.80
2019-05-21T06:52:32.225Z,10.80
2019-05-21T06:55:02.874Z,10.90
2019-05-21T06:57:33.491Z,10.90
2019-05-21T07:00:06.636Z,10.80
2019-05-21T07:02:37.479Z,10.80
2019-05-21T07:05:08.205Z,10.80
2019-05-21T07:07:39.051Z,10.80
2019-05-21T07:10:09.830Z,10.80
2019-05-21T07:12:40.953Z,10.80
2019-05-21T07:15:11.599Z,10.80
2019-05-21T07:17:42.354Z,10.80
2019-05-21T07:20:13.118Z,10.90
2019-05-21T07:22:44.084Z,10.90
2019-05-21T07:25:15.429Z,11.00
2019-05-21T07:27:46.631Z,11.00
2019-05-21T07:30:18.669Z,11.00
2019-05-21T07:32:50.406Z,11.10
2019-05-21T07:35:21.307Z,11.10
2019-05-21T07:37:52.156Z,11.10
2019-05-21T07:40:22.896Z,11.00
2019-05-21T07:42:53.716Z,11.10
2019-05-21T07:45:24.296Z,11.20
2019-05-21T07:47:55.028Z,11.10
2019-05-21T07:50:25.701Z,11.10
2019-05-21T07:52:56.542Z,11.10
2019-05-21T07:55:27.295Z,11.10
2019-05-21T07:57:58.267Z,11.20
2019-05-21T08:00:29.135Z,11.30
2019-05-21T08:02:59.938Z,11.40
2019-05-21T08:05:30.590Z,11.40
2019-05-21T08:08:01.238Z,11.50
2019-05-21T08:10:32.135Z,11.60
2019-05-21T08:13:03.179Z,11.60
2019-05-21T08:15:33.839Z,11.80
2019-05-21T08:18:04.354Z,11.80
2019-05-21T08:20:35.128Z,12.00
2019-05-21T08:23:05.981Z,12.10
2019-05-21T08:25:36.894Z,12.30
2019-05-21T08:28:07.773Z,12.30
2019-05-21T08:30:38.427Z,12.40
2019-05-21T08:33:09.022Z,12.40
2019-05-21T08:35:39.612Z,12.40
2019-05-21T08:38:10.439Z,12.30
2019-05-21T08:40:43.539Z,12.10
2019-05-21T08:43:13.571Z,12.00
2019-05-21T08:45:44.010Z,12.00
2019-05-21T08:48:14.993Z,12.00
2019-05-21T08:50:45.697Z,12.00
2019-05-21T08:53:16.730Z,12.20
2019-05-21T08:55:47.483Z,12.30
2019-05-21T08:58:18.180Z,12.40
2019-05-21T09:00:48.729Z,12.50
2019-05-21T09:03:19.464Z,12.50
2019-05-21T09:05:50.139Z,12.60
2019-05-21T09:08:20.881Z,12.70
2019-05-21T09:10:51.661Z,12.70
2019-05-21T09:13:23.610Z,12.90
2019-05-21T09:15:54.269Z,13.00
2019-05-21T09:18:25.414Z,13.10
2019-05-21T09:20:56.650Z,13.10
2019-05-21T09:23:27.331Z,13.20
2019-05-21T09:25:59.156Z,13.20
2019-05-21T09:28:30.188Z,13.20
2019-05-21T09:31:02.320Z,13.20
2019-05-21T09:33:34.217Z,13.40
2019-05-21T09:36:05.041Z,13.50
2019-05-21T09:38:36.883Z,13.50
2019-05-21T09:41:07.806Z,13.60
2019-05-21T09:43:38.532Z,13.60
2019-05-21T09:46:09.238Z,13.40
2019-05-21T09:48:40.083Z,13.40
2019-05-21T09:51:19.345Z,13.50
2019-05-21T09:53:43.505Z,13.50
2019-05-21T09:56:31.738Z,13.40
2019-05-21T09:59:12.029Z,13.20
2019-05-21T10:01:47.748Z,13.10
2019-05-21T10:04:16.798Z,13.10
2019-05-21T10:06:47.997Z,13.10
2019-05-21T10:09:20.252Z,13.10
2019-05-21T10:11:51.039Z,13.10
2019-05-21T10:14:21.660Z,13.20
2019-05-21T10:16:52.447Z,13.20
2019-05-21T10:19:23.311Z,13.30
2019-05-21T10:21:56.964Z,13.30
2019-05-21T10:24:27.308Z,13.40
2019-05-21T10:26:58.317Z,13.50
2019-05-21T10:29:29.203Z,13.50
2019-05-21T10:32:01.405Z,13.40
2019-05-21T10:34:32.616Z,13.30
2019-05-21T10:37:03.374Z,13.40
2019-05-21T10:39:34.185Z,13.40
2019-05-21T10:42:05.086Z,13.50
2019-05-21T10:44:36.049Z,13.60
2019-05-21T10:47:06.935Z,13.70
2019-05-21T10:49:38.101Z,13.80
2019-05-21T10:52:08.789Z,13.70
2019-05-21T10:54:39.534Z,13.70
2019-05-21T10:57:10.227Z,13.80
2019-05-21T10:59:41.032Z,14.00
2019-05-21T11:02:19.267Z,14.10
2019-05-21T11:04:51.785Z,14.20
2019-05-21T11:07:22.762Z,14.30
2019-05-21T11:09:53.660Z,14.40
2019-05-21T11:12:25.216Z,14.30
2019-05-21T11:14:56.077Z,14.20
2019-05-21T11:17:26.819Z,14.10
2019-05-21T11:19:57.540Z,14.00
2019-05-21T11:22:28.611Z,14.10
2019-05-21T11:24:59.369Z,14.00
2019-05-21T11:27:30.235Z,13.90
2019-05-21T11:30:01.099Z,13.80
2019-05-21T11:32:31.983Z,13.80
2019-05-21T11:35:02.853Z,13.90
2019-05-21T11:37:33.716Z,13.90
2019-05-21T11:40:08.370Z,14.10
2019-05-21T11:42:37.609Z,14.10
2019-05-21T11:45:08.610Z,14.20
2019-05-21T11:47:39.403Z,14.10
2019-05-21T11:50:10.362Z,14.10
2019-05-21T11:52:41.478Z,14.10
2019-05-21T11:55:12.174Z,14.10
2019-05-21T11:57:43.486Z,14.20
2019-05-21T12:00:14.680Z,14.10
2019-05-21T12:02:45.848Z,14.00
2019-05-21T12:05:18.128Z,14.10
2019-05-21T12:07:48.965Z,14.20
2019-05-21T12:10:19.580Z,14.20
2019-05-21T12:12:50.558Z,14.30
2019-05-21T12:15:21.225Z,14.30
2019-05-21T12:17:52.419Z,14.40
2019-05-21T12:20:35.968Z,14.50
2019-05-21T12:22:55.561Z,14.50
2019-05-21T12:25:26.422Z,14.40
2019-05-21T12:27:57.106Z,14.40
2019-05-21T12:30:27.881Z,14.30
2019-05-21T12:33:00.086Z,14.30
2019-05-21T12:35:31.446Z,14.30
2019-05-21T12:38:02.095Z,14.50
2019-05-21T12:40:33.087Z,14.40
2019-05-21T12:43:04.115Z,14.70
2019-05-21T12:45:35.107Z,14.80
2019-05-21T12:48:05.914Z,14.70
2019-05-21T12:50:36.605Z,14.70
2019-05-21T12:53:10.232Z,14.80
2019-05-21T12:55:40.946Z,14.90
2019-05-21T12:58:11.655Z,14.90
2019-05-21T13:00:43.274Z,14.80
2019-05-21T13:03:14.229Z,14.70
2019-05-21T13:05:46.205Z,14.90
2019-05-21T13:08:19.205Z,14.90
2019-05-21T13:10:52.135Z,14.90
2019-05-21T13:13:23.346Z,14.90
2019-05-21T13:15:54.437Z,14.70
2019-05-21T13:18:25.288Z,14.80
2019-05-21T13:20:56.079Z,14.70
2019-05-21T13:23:26.731Z,14.70
2019-05-21T13:25:57.378Z,14.50
2019-05-21T13:28:28.105Z,14.40
2019-05-21T13:30:58.993Z,14.40
2019-05-21T13:33:29.927Z,14.40
2019-05-21T13:36:00.866Z,14.40
2019-05-21T13:38:33.341Z,14.50
2019-05-21T13:41:05.236Z,14.40
2019-05-21T13:43:36.145Z,14.50
2019-05-21T13:46:06.957Z,14.60
2019-05-21T13:48:37.587Z,14.70
2019-05-21T13:51:08.408Z,14.70
2019-05-21T13:53:39.253Z,14.80
2019-05-21T13:56:10.103Z,14.90
2019-05-21T13:58:40.708Z,14.90
2019-05-21T14:01:15.591Z,15.00
2019-05-21T14:03:44.109Z,15.10
2019-05-21T14:06:14.802Z,15.20
2019-05-21T14:08:45.560Z,15.40
2019-05-21T14:11:16.457Z,15.50
2019-05-21T14:13:47.123Z,15.70
2019-05-21T14:16:17.905Z,15.70
2019-05-21T14:18:48.626Z,15.60
2019-05-21T14:21:19.276Z,15.60
2019-05-21T14:23:51.328Z,15.60
2019-05-21T14:26:22.028Z,15.60
2019-05-21T14:28:53.084Z,15.60
2019-05-21T14:31:23.786Z,15.50
2019-05-21T14:33:54.484Z,15.30
2019-05-21T14:36:25.594Z,15.30
2019-05-21T14:38:56.361Z,15.20
2019-05-21T14:41:27.802Z,15.40
2019-05-21T14:43:58.582Z,15.50
2019-05-21T14:46:29.255Z,15.60
2019-05-21T14:48:59.917Z,15.60
2019-05-21T14:51:30.608Z,15.40
2019-05-21T14:54:05.327Z,15.20
2019-05-21T14:56:35.944Z,15.20
2019-05-21T14:59:07.658Z,15.10
2019-05-21T15:01:38.625Z,15.10
2019-05-21T15:04:09.506Z,15.00
2019-05-21T15:06:40.288Z,14.90
2019-05-21T15:09:10.936Z,14.90
2019-05-21T15:11:41.606Z,14.90
2019-05-21T15:14:12.298Z,14.80
2019-05-21T15:16:44.346Z,14.80
2019-05-21T15:19:15.254Z,14.80
2019-05-21T15:21:48.476Z,14.90
2019-05-21T15:24:19.045Z,14.90
2019-05-21T15:26:50.094Z,14.90
2019-05-21T15:29:20.788Z,14.80
2019-05-21T15:31:51.560Z,14.80
2019-05-21T15:34:22.176Z,14.70
2019-05-21T15:36:53.095Z,14.60
2019-05-21T15:39:23.733Z,14.60
2019-05-21T15:41:54.369Z,14.60
2019-05-21T15:44:25.050Z,14.60
2019-05-21T15:46:55.985Z,14.50
2019-05-21T15:49:35.464Z,14.50
2019-05-21T15:51:59.346Z,14.50
2019-05-21T15:54:29.920Z,14.40
2019-05-21T15:57:02.227Z,14.30
2019-05-21T15:59:33.181Z,14.30
2019-05-21T16:02:04.171Z,14.30
2019-05-21T16:04:34.753Z,14.20
2019-05-21T16:07:05.569Z,14.20
2019-05-21T16:09:36.770Z,14.20
2019-05-21T16:12:07.859Z,14.20
2019-05-21T16:14:38.528Z,14.20
2019-05-21T16:17:09.557Z,14.30
2019-05-21T16:19:40.270Z,14.40
2019-05-21T16:22:11.116Z,14.50
2019-05-21T16:24:41.817Z,14.50
2019-05-21T16:27:12.430Z,14.60
2019-05-21T16:29:43.291Z,14.60
2019-05-21T16:32:14.049Z,14.60
2019-05-21T16:34:45.568Z,14.60
2019-05-21T16:37:16.693Z,14.60
2019-05-21T16:39:47.583Z,14.60
2019-05-21T16:42:18.262Z,14.60
2019-05-21T16:44:50.429Z,14.50
2019-05-21T16:47:21.258Z,14.50
2019-05-21T16:49:51.919Z,14.40
2019-05-21T16:52:22.496Z,14.30
2019-05-21T16:54:53.553Z,14.20
2019-05-21T16:57:24.405Z,14.20
2019-05-21T16:59:55.060Z,14.10
2019-05-21T17:02:25.746Z,14.10
2019-05-21T17:04:56.402Z,13.90
2019-05-21T17:07:27.208Z,13.90
2019-05-21T17:09:57.934Z,13.90
2019-05-21T17:12:28.720Z,13.90
2019-05-21T17:15:00.456Z,13.80
2019-05-21T17:17:31.529Z,13.70
2019-05-21T17:20:02.567Z,13.70
2019-05-21T17:22:33.673Z,13.60
2019-05-21T17:25:06.680Z,13.60
2019-05-21T17:27:36.669Z,13.50
2019-05-21T17:30:10.306Z,13.50
2019-05-21T17:32:41.324Z,13.50
2019-05-21T17:35:12.243Z,13.50
2019-05-21T17:37:42.962Z,13.50
2019-05-21T17:40:14.910Z,13.50
2019-05-21T17:42:46.539Z,13.50
2019-05-21T17:45:17.293Z,13.40
2019-05-21T17:47:48.208Z,13.40
2019-05-21T17:50:19.376Z,13.40
2019-05-21T17:52:50.253Z,13.40
2019-05-21T17:55:21.149Z,13.40
2019-05-21T17:57:52.271Z,13.40
2019-05-21T18:00:25.004Z,13.40
2019-05-21T18:02:55.025Z,13.30
2019-05-21T18:05:26.968Z,13.40
2019-05-21T18:07:57.684Z,13.30
2019-05-21T18:10:28.493Z,13.30
2019-05-21T18:12:59.693Z,13.30
2019-05-21T18:15:30.418Z,13.30
2019-05-21T18:18:02.057Z,13.20
2019-05-21T18:20:32.864Z,13.20
2019-05-21T18:23:04.335Z,13.20
2019-05-21T18:25:35.335Z,13.10
2019-05-21T18:28:06.780Z,13.10
2019-05-21T18:30:37.556Z,13.10
2019-05-21T18:33:09.368Z,13.10
2019-05-21T18:35:41.106Z,13.20
2019-05-21T18:38:12.873Z,13.20
2019-05-21T18:40:44.247Z,13.10
2019-05-21T18:43:15.556Z,13.10
2019-05-21T18:45:48.957Z,13.10
2019-05-21T18:48:19.745Z,13.10
2019-05-21T18:50:50.893Z,13.10
2019-05-21T18:53:22.736Z,13.10
2019-05-21T18:55:53.358Z,13.10
2019-05-21T18:58:24.043Z,13.10
2019-05-21T19:00:54.815Z,13.00
2019-05-21T19:03:26.042Z,13.00
2019-05-21T19:05:57.278Z,13.00
2019-05-21T19:08:28.525Z,13.00
2019-05-21T19:10:59.409Z,13.00
2019-05-21T19:13:30.203Z,13.00
2019-05-21T19:16:01.258Z,13.10
2019-05-21T19:18:32.159Z,13.00
2019-05-21T19:21:03.045Z,13.00
2019-05-21T19:23:34.448Z,13.00
2019-05-21T19:26:05.826Z,13.00
2019-05-21T19:28:37.800Z,13.00
2019-05-21T19:31:09.072Z,13.00
2019-05-21T19:33:40.364Z,13.00
2019-05-21T19:36:12.804Z,13.00
2019-05-21T19:38:45.601Z,12.90
2019-05-21T19:41:18.405Z,13.00
2019-05-21T19:43:50.496Z,13.00
2019-05-21T19:46:22.849Z,13.00
2019-05-21T19:48:55.408Z,13.00
2019-05-21T19:51:26.564Z,13.00
2019-05-21T19:53:57.512Z,13.10
2019-05-21T19:56:29.959Z,13.10
2019-05-21T19:59:00.842Z,13.10
2019-05-21T20:01:31.901Z,13.10
2019-05-21T20:04:03.526Z,13.00
2019-05-21T20:06:35.359Z,13.00
2019-05-21T20:09:09.151Z,13.00
2019-05-21T20:11:40.307Z,13.00
2019-05-21T20:14:11.630Z,13.00
2019-05-21T20:16:42.831Z,13.00
2019-05-21T20:19:17.950Z,13.00
2019-05-21T20:21:49.912Z,13.00
2019-05-21T20:24:21.133Z,13.00
2019-05-21T20:26:52.091Z,13.00
2019-05-21T20:29:23.329Z,13.00
2019-05-21T20:31:55.276Z,13.00
2019-05-21T20:34:26.470Z,13.00
2019-05-21T20:36:58.084Z,13.00
2019-05-21T20:39:31.731Z,13.00
2019-05-21T20:42:03.738Z,13.00
2019-05-21T20:44:34.896Z,13.00
2019-05-21T20:47:07.395Z,13.00
2019-05-21T20:49:38.418Z,12.90
2019-05-21T20:52:18.641Z,12.90
2019-05-21T20:54:43.149Z,12.90
2019-05-21T20:57:14.385Z,12.90
2019-05-21T20:59:45.307Z,12.90
2019-05-21T21:02:17.351Z,12.90
2019-05-21T21:04:49.409Z,12.90
2019-05-21T21:07:20.617Z,12.80
2019-05-21T21:09:51.543Z,12.80
2019-05-21T21:12:22.411Z,12.70
2019-05-21T21:14:53.665Z,12.60
2019-05-21T21:17:25.254Z,12.60
2019-05-21T21:19:56.208Z,12.70
2019-05-21T21:22:26.959Z,12.70
2019-05-21T21:24:59.323Z,12.70
2019-05-21T21:27:31.096Z,12.70
2019-05-21T21:30:02.459Z,12.70
2019-05-21T21:32:34.901Z,12.70
2019-05-21T21:35:07.038Z,12.80
2019-05-21T21:37:37.620Z,12.80
2019-05-21T21:40:11.186Z,12.80
2019-05-21T21:42:42.164Z,12.80
2019-05-21T21:45:13.862Z,12.80
2019-05-21T21:47:44.646Z,12.80
2019-05-21T21:50:15.905Z,12.70
2019-05-21T21:52:46.757Z,12.70
2019-05-21T21:55:17.600Z,12.70
2019-05-21T21:57:48.831Z,12.70
2019-05-21T22:00:58.839Z,12.70
2019-05-21T22:03:31.176Z,12.70
2019-05-21T22:06:05.944Z,12.70
2019-05-21T22:08:37.312Z,12.70
2019-05-21T22:11:08.552Z,12.60
2019-05-21T22:13:39.325Z,12.60
2019-05-21T22:16:10.259Z,12.60
2019-05-21T22:18:40.921Z,12.60
2019-05-21T22:21:12.290Z,12.60
2019-05-21T22:23:43.204Z,12.50
2019-05-21T22:26:14.089Z,12.50
2019-05-21T22:28:44.991Z,12.50
2019-05-21T22:31:15.907Z,12.50
2019-05-21T22:33:46.678Z,12.60
2019-05-21T22:36:17.693Z,12.60
2019-05-21T22:38:48.582Z,12.60
2019-05-21T22:41:19.249Z,12.60
2019-05-21T22:43:50.030Z,12.60
2019-05-21T22:46:20.761Z,12.60
2019-05-21T22:48:51.481Z,12.60
2019-05-21T22:51:22.342Z,12.60
2019-05-21T22:53:53.087Z,12.60
2019-05-21T22:56:23.728Z,12.50
2019-05-21T22:58:54.376Z,12.50
2019-05-21T23:01:26.725Z,12.40
2019-05-21T23:03:57.549Z,12.40
2019-05-21T23:06:28.334Z,12.40
2019-05-21T23:08:59.025Z,12.40
2019-05-21T23:11:29.619Z,12.30
2019-05-21T23:14:00.464Z,12.30
2019-05-21T23:16:34.514Z,12.10
2019-05-21T23:19:25.669Z,12.10
2019-05-21T23:22:07.326Z,12.00
2019-05-21T23:24:39.183Z,12.00
2019-05-21T23:27:11.407Z,11.90
2019-05-21T23:29:42.720Z,11.90
2019-05-21T23:32:14.337Z,11.80
2019-05-21T23:34:45.697Z,11.80
2019-05-21T23:37:18.100Z,11.80
2019-05-21T23:39:52.112Z,11.80
2019-05-21T23:42:29.469Z,11.80
2019-05-21T23:44:55.461Z,11.80
2019-05-21T23:47:27.325Z,11.80
2019-05-21T23:49:58.260Z,11.80
2019-05-21T23:52:29.237Z,11.70
2019-05-21T23:55:00.370Z,11.60
2019-05-21T23:57:32.671Z,11.60
